sensor_id;sensor_type;location;lat;lon;timestamp;P1;durP1;ratioP1;P2;durP2;ratioP2
63534;SDS011;55128;50.230;18.944;2023-04-15T00:01:51;6.47;;;4.78;;
63534;SDS011;55128;50.230;18.944;2023-04-15T00:06:51;6.13;;;4.63;;
63534;SDS011;55128;50.230;18.944;2023-04-15T00:11:52;7.93;;;6.20;;
63534;SDS011;55128;50.230;18.944;2023-04-15T00:16:52;7.88;;;5.38;;
63534;SDS011;55128;50.230;18.944;2023-04-15T00:21:55;6.93;;;4.55;;
63534;SDS011;55128;50.230;18.944;2023-04-15T00:26:56;7.65;;;4.95;;
63534;SDS011;55128;50.230;18.944;2023-04-15T00:31:57;7.00;;;5.10;;
63534;SDS011;55128;50.230;18.944;2023-04-15T00:36:57;8.73;;;5.07;;
63534;SDS011;55128;50.230;18.944;2023-04-15T00:41:57;6.30;;;4.90;;
63534;SDS011;55128;50.230;18.944;2023-04-15T00:46:59;6.25;;;4.13;;
63534;SDS011;55128;50.230;18.944;2023-04-15T00:51:59;6.65;;;5.32;;
63534;SDS011;55128;50.230;18.944;2023-04-15T00:57:00;9.13;;;6.00;;
63534;SDS011;55128;50.230;18.944;2023-04-15T01:02:02;13.02;;;10.07;;
63534;SDS011;55128;50.230;18.944;2023-04-15T01:07:02;13.45;;;10.30;;
63534;SDS011;55128;50.230;18.944;2023-04-15T01:12:03;11.07;;;9.03;;
63534;SDS011;55128;50.230;18.944;2023-04-15T01:17:04;18.13;;;13.23;;
63534;SDS011;55128;50.230;18.944;2023-04-15T01:22:04;14.77;;;10.52;;
63534;SDS011;55128;50.230;18.944;2023-04-15T01:27:05;12.80;;;10.40;;
63534;SDS011;55128;50.230;18.944;2023-04-15T01:32:05;12.20;;;9.00;;
63534;SDS011;55128;50.230;18.944;2023-04-15T01:37:05;8.88;;;6.75;;
63534;SDS011;55128;50.230;18.944;2023-04-15T01:42:06;9.48;;;7.55;;
63534;SDS011;55128;50.230;18.944;2023-04-15T01:47:06;12.95;;;8.40;;
63534;SDS011;55128;50.230;18.944;2023-04-15T01:52:07;9.02;;;7.28;;
63534;SDS011;55128;50.230;18.944;2023-04-15T01:57:08;8.93;;;6.85;;
63534;SDS011;55128;50.230;18.944;2023-04-15T02:02:08;7.38;;;6.30;;
63534;SDS011;55128;50.230;18.944;2023-04-15T02:07:09;6.85;;;5.90;;
63534;SDS011;55128;50.230;18.944;2023-04-15T02:12:09;10.32;;;6.72;;
63534;SDS011;55128;50.230;18.944;2023-04-15T02:17:10;7.90;;;5.72;;
63534;SDS011;55128;50.230;18.944;2023-04-15T02:22:10;7.50;;;6.30;;
63534;SDS011;55128;50.230;18.944;2023-04-15T02:27:17;9.70;;;6.28;;
63534;SDS011;55128;50.230;18.944;2023-04-15T02:32:17;9.40;;;6.63;;
63534;SDS011;55128;50.230;18.944;2023-04-15T02:37:19;10.95;;;7.25;;
63534;SDS011;55128;50.230;18.944;2023-04-15T02:42:19;11.85;;;7.85;;
63534;SDS011;55128;50.230;18.944;2023-04-15T02:47:20;9.27;;;6.70;;
63534;SDS011;55128;50.230;18.944;2023-04-15T02:52:20;8.87;;;6.93;;
63534;SDS011;55128;50.230;18.944;2023-04-15T02:57:21;10.48;;;7.22;;
63534;SDS011;55128;50.230;18.944;2023-04-15T03:02:21;8.98;;;6.40;;
63534;SDS011;55128;50.230;18.944;2023-04-15T03:07:22;11.68;;;7.80;;
63534;SDS011;55128;50.230;18.944;2023-04-15T03:12:22;11.70;;;9.03;;
63534;SDS011;55128;50.230;18.944;2023-04-15T03:17:22;15.15;;;10.85;;
63534;SDS011;55128;50.230;18.944;2023-04-15T03:22:23;15.93;;;13.30;;
63534;SDS011;55128;50.230;18.944;2023-04-15T03:27:24;17.92;;;15.70;;
63534;SDS011;55128;50.230;18.944;2023-04-15T03:32:24;12.65;;;9.43;;
63534;SDS011;55128;50.230;18.944;2023-04-15T03:37:26;14.07;;;9.98;;
63534;SDS011;55128;50.230;18.944;2023-04-15T03:42:26;14.27;;;11.80;;
63534;SDS011;55128;50.230;18.944;2023-04-15T03:47:26;14.32;;;11.10;;
63534;SDS011;55128;50.230;18.944;2023-04-15T03:52:27;10.48;;;9.25;;
63534;SDS011;55128;50.230;18.944;2023-04-15T03:57:27;11.57;;;9.25;;
63534;SDS011;55128;50.230;18.944;2023-04-15T04:02:28;11.40;;;8.75;;
63534;SDS011;55128;50.230;18.944;2023-04-15T04:07:28;14.48;;;11.27;;
63534;SDS011;55128;50.230;18.944;2023-04-15T04:12:29;13.48;;;9.93;;
63534;SDS011;55128;50.230;18.944;2023-04-15T04:17:29;14.30;;;10.63;;
63534;SDS011;55128;50.230;18.944;2023-04-15T04:22:30;11.80;;;8.90;;
63534;SDS011;55128;50.230;18.944;2023-04-15T04:27:30;11.35;;;8.30;;
63534;SDS011;55128;50.230;18.944;2023-04-15T04:32:31;15.73;;;11.87;;
63534;SDS011;55128;50.230;18.944;2023-04-15T04:37:31;7.97;;;5.80;;
63534;SDS011;55128;50.230;18.944;2023-04-15T04:42:31;11.07;;;6.72;;
63534;SDS011;55128;50.230;18.944;2023-04-15T04:47:32;11.32;;;7.53;;
63534;SDS011;55128;50.230;18.944;2023-04-15T04:52:32;8.38;;;6.80;;
63534;SDS011;55128;50.230;18.944;2023-04-15T04:57:32;8.82;;;6.75;;
63534;SDS011;55128;50.230;18.944;2023-04-15T05:02:34;9.18;;;7.10;;
63534;SDS011;55128;50.230;18.944;2023-04-15T05:07:35;9.70;;;7.15;;
63534;SDS011;55128;50.230;18.944;2023-04-15T05:12:36;9.45;;;7.93;;
63534;SDS011;55128;50.230;18.944;2023-04-15T05:17:37;8.25;;;6.55;;
63534;SDS011;55128;50.230;18.944;2023-04-15T05:22:37;9.20;;;6.33;;
63534;SDS011;55128;50.230;18.944;2023-04-15T05:27:38;10.52;;;6.95;;
63534;SDS011;55128;50.230;18.944;2023-04-15T05:32:38;10.37;;;8.10;;
63534;SDS011;55128;50.230;18.944;2023-04-15T05:37:39;9.90;;;7.55;;
63534;SDS011;55128;50.230;18.944;2023-04-15T05:42:39;31.40;;;23.13;;
63534;SDS011;55128;50.230;18.944;2023-04-15T05:47:40;22.92;;;15.45;;
63534;SDS011;55128;50.230;18.944;2023-04-15T05:52:40;15.38;;;12.07;;
63534;SDS011;55128;50.230;18.944;2023-04-15T05:57:41;14.80;;;10.00;;
63534;SDS011;55128;50.230;18.944;2023-04-15T06:02:41;14.30;;;10.07;;
63534;SDS011;55128;50.230;18.944;2023-04-15T06:07:42;13.57;;;10.00;;
63534;SDS011;55128;50.230;18.944;2023-04-15T06:12:43;15.02;;;12.10;;
63534;SDS011;55128;50.230;18.944;2023-04-15T06:17:43;15.80;;;9.33;;
63534;SDS011;55128;50.230;18.944;2023-04-15T06:22:43;13.27;;;9.20;;
63534;SDS011;55128;50.230;18.944;2023-04-15T06:27:44;12.02;;;8.38;;
63534;SDS011;55128;50.230;18.944;2023-04-15T06:32:44;12.05;;;7.88;;
63534;SDS011;55128;50.230;18.944;2023-04-15T06:37:45;8.63;;;5.82;;
63534;SDS011;55128;50.230;18.944;2023-04-15T06:42:45;9.90;;;6.73;;
63534;SDS011;55128;50.230;18.944;2023-04-15T06:47:45;7.93;;;5.90;;
63534;SDS011;55128;50.230;18.944;2023-04-15T06:52:46;8.37;;;6.10;;
63534;SDS011;55128;50.230;18.944;2023-04-15T06:57:46;9.15;;;6.60;;
63534;SDS011;55128;50.230;18.944;2023-04-15T07:02:47;7.20;;;5.50;;
63534;SDS011;55128;50.230;18.944;2023-04-15T07:07:47;5.68;;;4.65;;
63534;SDS011;55128;50.230;18.944;2023-04-15T07:12:47;7.03;;;5.40;;
63534;SDS011;55128;50.230;18.944;2023-04-15T07:17:49;10.60;;;5.70;;
63534;SDS011;55128;50.230;18.944;2023-04-15T07:22:50;5.82;;;4.60;;
63534;SDS011;55128;50.230;18.944;2023-04-15T07:27:51;6.43;;;4.20;;
63534;SDS011;55128;50.230;18.944;2023-04-15T07:32:51;5.65;;;3.90;;
63534;SDS011;55128;50.230;18.944;2023-04-15T07:37:52;5.07;;;3.13;;
63534;SDS011;55128;50.230;18.944;2023-04-15T07:42:52;4.83;;;3.30;;
63534;SDS011;55128;50.230;18.944;2023-04-15T07:47:53;4.30;;;3.43;;
63534;SDS011;55128;50.230;18.944;2023-04-15T07:52:55;4.23;;;3.23;;
63534;SDS011;55128;50.230;18.944;2023-04-15T07:57:56;3.80;;;2.40;;
63534;SDS011;55128;50.230;18.944;2023-04-15T08:02:56;2.63;;;1.80;;
63534;SDS011;55128;50.230;18.944;2023-04-15T08:07:58;2.33;;;1.37;;
63534;SDS011;55128;50.230;18.944;2023-04-15T08:12:58;3.80;;;2.38;;
63534;SDS011;55128;50.230;18.944;2023-04-15T08:18:00;2.95;;;1.98;;
63534;SDS011;55128;50.230;18.944;2023-04-15T08:23:00;2.63;;;1.45;;
63534;SDS011;55128;50.230;18.944;2023-04-15T08:28:02;2.50;;;1.40;;
63534;SDS011;55128;50.230;18.944;2023-04-15T08:33:04;1.52;;;1.02;;
63534;SDS011;55128;50.230;18.944;2023-04-15T08:38:04;2.00;;;1.40;;
63534;SDS011;55128;50.230;18.944;2023-04-15T08:43:05;2.95;;;1.20;;
63534;SDS011;55128;50.230;18.944;2023-04-15T08:48:08;2.35;;;1.40;;
63534;SDS011;55128;50.230;18.944;2023-04-15T08:53:15;1.50;;;0.95;;
63534;SDS011;55128;50.230;18.944;2023-04-15T08:58:17;2.05;;;1.00;;
63534;SDS011;55128;50.230;18.944;2023-04-15T09:03:18;3.03;;;1.55;;
63534;SDS011;55128;50.230;18.944;2023-04-15T09:08:20;4.37;;;1.90;;
63534;SDS011;55128;50.230;18.944;2023-04-15T09:13:21;8.13;;;3.00;;
63534;SDS011;55128;50.230;18.944;2023-04-15T09:18:28;4.00;;;3.45;;
63534;SDS011;55128;50.230;18.944;2023-04-15T09:23:30;2.38;;;1.40;;
63534;SDS011;55128;50.230;18.944;2023-04-15T09:28:39;1.98;;;1.30;;
63534;SDS011;55128;50.230;18.944;2023-04-15T09:33:53;1.13;;;0.82;;
63534;SDS011;55128;50.230;18.944;2023-04-15T09:38:58;1.75;;;1.02;;
63534;SDS011;55128;50.230;18.944;2023-04-15T09:43:59;1.85;;;1.00;;
63534;SDS011;55128;50.230;18.944;2023-04-15T09:49:06;2.40;;;1.20;;
63534;SDS011;55128;50.230;18.944;2023-04-15T09:54:07;1.90;;;1.10;;
63534;SDS011;55128;50.230;18.944;2023-04-15T09:59:08;4.50;;;3.10;;
63534;SDS011;55128;50.230;18.944;2023-04-15T10:04:08;1.65;;;1.10;;
63534;SDS011;55128;50.230;18.944;2023-04-15T10:09:09;2.35;;;1.20;;
63534;SDS011;55128;50.230;18.944;2023-04-15T10:14:10;2.75;;;1.20;;
63534;SDS011;55128;50.230;18.944;2023-04-15T10:19:12;1.97;;;1.50;;
63534;SDS011;55128;50.230;18.944;2023-04-15T10:24:15;2.03;;;1.40;;
63534;SDS011;55128;50.230;18.944;2023-04-15T10:29:16;1.80;;;1.27;;
63534;SDS011;55128;50.230;18.944;2023-04-15T10:34:17;2.22;;;1.40;;
63534;SDS011;55128;50.230;18.944;2023-04-15T10:44:37;2.00;;;1.30;;
63534;SDS011;55128;50.230;18.944;2023-04-15T10:49:56;2.67;;;1.50;;
63534;SDS011;55128;50.230;18.944;2023-04-15T10:55:19;2.22;;;1.60;;
63534;SDS011;55128;50.230;18.944;2023-04-15T11:00:23;2.30;;;1.58;;
63534;SDS011;55128;50.230;18.944;2023-04-15T11:15:54;3.47;;;2.00;;
63534;SDS011;55128;50.230;18.944;2023-04-15T11:21:00;3.03;;;1.75;;
63534;SDS011;55128;50.230;18.944;2023-04-15T11:26:08;1.98;;;1.58;;
63534;SDS011;55128;50.230;18.944;2023-04-15T11:31:14;2.17;;;1.88;;
63534;SDS011;55128;50.230;18.944;2023-04-15T11:36:16;2.05;;;1.73;;
63534;SDS011;55128;50.230;18.944;2023-04-15T11:41:20;1.80;;;1.43;;
63534;SDS011;55128;50.230;18.944;2023-04-15T11:46:27;1.90;;;1.70;;
63534;SDS011;55128;50.230;18.944;2023-04-15T11:51:31;2.10;;;1.60;;
63534;SDS011;55128;50.230;18.944;2023-04-15T11:56:32;2.60;;;1.50;;
63534;SDS011;55128;50.230;18.944;2023-04-15T12:01:33;1.93;;;1.50;;
63534;SDS011;55128;50.230;18.944;2023-04-15T12:06:35;2.42;;;1.73;;
63534;SDS011;55128;50.230;18.944;2023-04-15T12:16:49;3.75;;;1.60;;
63534;SDS011;55128;50.230;18.944;2023-04-15T12:21:58;2.20;;;1.80;;
63534;SDS011;55128;50.230;18.944;2023-04-15T12:27:01;3.22;;;2.03;;
63534;SDS011;55128;50.230;18.944;2023-04-15T12:32:06;2.65;;;2.00;;
63534;SDS011;55128;50.230;18.944;2023-04-15T12:37:11;3.05;;;2.00;;
63534;SDS011;55128;50.230;18.944;2023-04-15T12:42:15;3.03;;;2.10;;
63534;SDS011;55128;50.230;18.944;2023-04-15T12:47:16;2.28;;;1.88;;
63534;SDS011;55128;50.230;18.944;2023-04-15T12:52:16;3.28;;;2.00;;
63534;SDS011;55128;50.230;18.944;2023-04-15T12:57:17;3.70;;;2.40;;
63534;SDS011;55128;50.230;18.944;2023-04-15T13:02:18;5.00;;;2.38;;
63534;SDS011;55128;50.230;18.944;2023-04-15T13:07:20;5.72;;;2.63;;
63534;SDS011;55128;50.230;18.944;2023-04-15T13:12:23;7.03;;;3.47;;
63534;SDS011;55128;50.230;18.944;2023-04-15T13:17:23;3.10;;;2.13;;
63534;SDS011;55128;50.230;18.944;2023-04-15T13:22:23;5.07;;;3.20;;
63534;SDS011;55128;50.230;18.944;2023-04-15T13:27:24;3.97;;;2.70;;
63534;SDS011;55128;50.230;18.944;2023-04-15T13:32:24;2.85;;;2.30;;
63534;SDS011;55128;50.230;18.944;2023-04-15T13:37:28;3.95;;;2.55;;
63534;SDS011;55128;50.230;18.944;2023-04-15T13:42:29;3.88;;;2.17;;
63534;SDS011;55128;50.230;18.944;2023-04-15T13:47:29;3.92;;;2.30;;
63534;SDS011;55128;50.230;18.944;2023-04-15T13:52:30;3.53;;;2.20;;
63534;SDS011;55128;50.230;18.944;2023-04-15T13:57:30;4.10;;;2.20;;
63534;SDS011;55128;50.230;18.944;2023-04-15T14:02:31;6.85;;;5.00;;
63534;SDS011;55128;50.230;18.944;2023-04-15T14:07:32;3.20;;;2.20;;
63534;SDS011;55128;50.230;18.944;2023-04-15T14:12:32;6.32;;;3.17;;
63534;SDS011;55128;50.230;18.944;2023-04-15T14:17:33;4.70;;;3.30;;
63534;SDS011;55128;50.230;18.944;2023-04-15T14:22:33;4.35;;;2.72;;
63534;SDS011;55128;50.230;18.944;2023-04-15T14:27:33;4.70;;;3.20;;
63534;SDS011;55128;50.230;18.944;2023-04-15T14:32:34;3.58;;;2.40;;
63534;SDS011;55128;50.230;18.944;2023-04-15T14:37:35;6.43;;;3.13;;
63534;SDS011;55128;50.230;18.944;2023-04-15T14:42:35;5.05;;;3.53;;
63534;SDS011;55128;50.230;18.944;2023-04-15T14:47:36;6.87;;;3.30;;
63534;SDS011;55128;50.230;18.944;2023-04-15T14:52:36;4.55;;;3.10;;
63534;SDS011;55128;50.230;18.944;2023-04-15T14:57:40;3.08;;;2.35;;
63534;SDS011;55128;50.230;18.944;2023-04-15T15:02:42;7.13;;;5.90;;
63534;SDS011;55128;50.230;18.944;2023-04-15T15:07:43;3.92;;;3.28;;
63534;SDS011;55128;50.230;18.944;2023-04-15T15:12:43;5.17;;;3.27;;
63534;SDS011;55128;50.230;18.944;2023-04-15T15:17:44;12.77;;;8.00;;
63534;SDS011;55128;50.230;18.944;2023-04-15T15:22:44;3.70;;;2.80;;
63534;SDS011;55128;50.230;18.944;2023-04-15T15:27:44;4.20;;;2.90;;
63534;SDS011;55128;50.230;18.944;2023-04-15T15:32:45;6.25;;;3.35;;
63534;SDS011;55128;50.230;18.944;2023-04-15T15:37:46;4.83;;;3.17;;
63534;SDS011;55128;50.230;18.944;2023-04-15T15:42:46;10.60;;;8.90;;
63534;SDS011;55128;50.230;18.944;2023-04-15T15:47:48;13.10;;;10.00;;
63534;SDS011;55128;50.230;18.944;2023-04-15T15:52:49;7.85;;;4.43;;
63534;SDS011;55128;50.230;18.944;2023-04-15T15:57:49;5.50;;;3.47;;
63534;SDS011;55128;50.230;18.944;2023-04-15T16:02:53;5.07;;;3.40;;
63534;SDS011;55128;50.230;18.944;2023-04-15T16:07:56;4.75;;;3.10;;
63534;SDS011;55128;50.230;18.944;2023-04-15T16:12:56;5.37;;;4.77;;
63534;SDS011;55128;50.230;18.944;2023-04-15T16:17:56;6.70;;;4.73;;
63534;SDS011;55128;50.230;18.944;2023-04-15T16:22:57;8.95;;;5.55;;
63534;SDS011;55128;50.230;18.944;2023-04-15T16:27:57;9.20;;;5.38;;
63534;SDS011;55128;50.230;18.944;2023-04-15T16:32:58;9.15;;;6.57;;
63534;SDS011;55128;50.230;18.944;2023-04-15T16:37:58;10.77;;;7.40;;
63534;SDS011;55128;50.230;18.944;2023-04-15T16:42:58;14.50;;;9.05;;
63534;SDS011;55128;50.230;18.944;2023-04-15T16:47:59;10.07;;;7.55;;
63534;SDS011;55128;50.230;18.944;2023-04-15T16:52:59;10.27;;;6.90;;
63534;SDS011;55128;50.230;18.944;2023-04-15T16:58:00;9.07;;;6.28;;
63534;SDS011;55128;50.230;18.944;2023-04-15T17:03:01;10.18;;;7.35;;
63534;SDS011;55128;50.230;18.944;2023-04-15T17:08:02;9.10;;;6.53;;
63534;SDS011;55128;50.230;18.944;2023-04-15T17:13:03;9.23;;;5.70;;
63534;SDS011;55128;50.230;18.944;2023-04-15T17:18:03;9.47;;;6.83;;
63534;SDS011;55128;50.230;18.944;2023-04-15T17:23:04;11.30;;;7.82;;
63534;SDS011;55128;50.230;18.944;2023-04-15T17:28:05;7.55;;;5.15;;
63534;SDS011;55128;50.230;18.944;2023-04-15T17:33:05;8.93;;;6.10;;
63534;SDS011;55128;50.230;18.944;2023-04-15T17:38:05;11.80;;;6.75;;
63534;SDS011;55128;50.230;18.944;2023-04-15T17:43:06;10.18;;;7.25;;
63534;SDS011;55128;50.230;18.944;2023-04-15T17:48:09;19.17;;;8.85;;
63534;SDS011;55128;50.230;18.944;2023-04-15T17:53:09;18.38;;;11.98;;
63534;SDS011;55128;50.230;18.944;2023-04-15T17:58:10;19.73;;;13.27;;
63534;SDS011;55128;50.230;18.944;2023-04-15T18:03:10;17.33;;;11.98;;
63534;SDS011;55128;50.230;18.944;2023-04-15T18:08:11;16.85;;;11.07;;
63534;SDS011;55128;50.230;18.944;2023-04-15T18:13:11;18.40;;;13.07;;
63534;SDS011;55128;50.230;18.944;2023-04-15T18:18:11;18.77;;;13.33;;
63534;SDS011;55128;50.230;18.944;2023-04-15T18:23:12;17.50;;;12.53;;
63534;SDS011;55128;50.230;18.944;2023-04-15T18:28:13;16.35;;;12.20;;
63534;SDS011;55128;50.230;18.944;2023-04-15T18:33:14;17.02;;;12.15;;
63534;SDS011;55128;50.230;18.944;2023-04-15T18:38:18;19.33;;;12.93;;
63534;SDS011;55128;50.230;18.944;2023-04-15T18:43:18;28.00;;;20.92;;
63534;SDS011;55128;50.230;18.944;2023-04-15T18:48:18;23.00;;;16.65;;
63534;SDS011;55128;50.230;18.944;2023-04-15T18:53:19;42.10;;;28.48;;
63534;SDS011;55128;50.230;18.944;2023-04-15T18:58:20;19.73;;;14.52;;
63534;SDS011;55128;50.230;18.944;2023-04-15T19:03:20;17.92;;;13.20;;
63534;SDS011;55128;50.230;18.944;2023-04-15T19:08:21;23.50;;;15.77;;
63534;SDS011;55128;50.230;18.944;2023-04-15T19:13:21;17.67;;;15.25;;
63534;SDS011;55128;50.230;18.944;2023-04-15T19:18:22;18.20;;;14.50;;
63534;SDS011;55128;50.230;18.944;2023-04-15T19:23:22;20.75;;;15.68;;
63534;SDS011;55128;50.230;18.944;2023-04-15T19:28:23;17.58;;;12.25;;
63534;SDS011;55128;50.230;18.944;2023-04-15T19:33:24;37.67;;;27.88;;
63534;SDS011;55128;50.230;18.944;2023-04-15T19:38:30;32.80;;;26.55;;
63534;SDS011;55128;50.230;18.944;2023-04-15T19:43:31;28.33;;;21.83;;
63534;SDS011;55128;50.230;18.944;2023-04-15T19:48:31;48.65;;;34.35;;
63534;SDS011;55128;50.230;18.944;2023-04-15T19:53:32;59.90;;;41.30;;
63534;SDS011;55128;50.230;18.944;2023-04-15T19:58:32;37.40;;;27.40;;
63534;SDS011;55128;50.230;18.944;2023-04-15T20:03:33;31.27;;;22.58;;
63534;SDS011;55128;50.230;18.944;2023-04-15T20:08:33;27.87;;;20.73;;
63534;SDS011;55128;50.230;18.944;2023-04-15T20:13:33;31.30;;;21.30;;
63534;SDS011;55128;50.230;18.944;2023-04-15T20:18:34;28.63;;;21.25;;
63534;SDS011;55128;50.230;18.944;2023-04-15T20:23:34;30.38;;;21.90;;
63534;SDS011;55128;50.230;18.944;2023-04-15T20:28:35;32.78;;;23.23;;
63534;SDS011;55128;50.230;18.944;2023-04-15T20:33:36;46.53;;;33.10;;
63534;SDS011;55128;50.230;18.944;2023-04-15T20:38:36;43.83;;;30.07;;
63534;SDS011;55128;50.230;18.944;2023-04-15T20:43:36;43.72;;;29.48;;
63534;SDS011;55128;50.230;18.944;2023-04-15T20:48:37;53.65;;;37.22;;
63534;SDS011;55128;50.230;18.944;2023-04-15T20:53:37;53.55;;;39.22;;
63534;SDS011;55128;50.230;18.944;2023-04-15T20:58:37;37.17;;;27.38;;
63534;SDS011;55128;50.230;18.944;2023-04-15T21:03:38;39.75;;;26.52;;
63534;SDS011;55128;50.230;18.944;2023-04-15T21:08:38;56.17;;;38.40;;
63534;SDS011;55128;50.230;18.944;2023-04-15T21:13:38;53.27;;;37.37;;
63534;SDS011;55128;50.230;18.944;2023-04-15T21:18:39;37.63;;;26.50;;
63534;SDS011;55128;50.230;18.944;2023-04-15T21:23:39;33.88;;;23.58;;
63534;SDS011;55128;50.230;18.944;2023-04-15T21:28:41;30.25;;;22.25;;
63534;SDS011;55128;50.230;18.944;2023-04-15T21:33:41;41.28;;;29.30;;
63534;SDS011;55128;50.230;18.944;2023-04-15T21:38:41;48.58;;;33.15;;
63534;SDS011;55128;50.230;18.944;2023-04-15T21:43:42;42.65;;;30.42;;
63534;SDS011;55128;50.230;18.944;2023-04-15T21:48:42;37.30;;;24.35;;
63534;SDS011;55128;50.230;18.944;2023-04-15T21:53:42;38.83;;;25.15;;
63534;SDS011;55128;50.230;18.944;2023-04-15T21:58:43;47.58;;;34.72;;
63534;SDS011;55128;50.230;18.944;2023-04-15T22:03:43;44.10;;;30.63;;
63534;SDS011;55128;50.230;18.944;2023-04-15T22:08:44;41.08;;;29.73;;
63534;SDS011;55128;50.230;18.944;2023-04-15T22:13:44;41.77;;;29.43;;
63534;SDS011;55128;50.230;18.944;2023-04-15T22:18:45;38.25;;;25.65;;
63534;SDS011;55128;50.230;18.944;2023-04-15T22:23:46;39.37;;;25.87;;
63534;SDS011;55128;50.230;18.944;2023-04-15T22:28:47;45.63;;;30.27;;
63534;SDS011;55128;50.230;18.944;2023-04-15T22:33:49;42.53;;;29.90;;
63534;SDS011;55128;50.230;18.944;2023-04-15T22:38:49;46.97;;;31.08;;
63534;SDS011;55128;50.230;18.944;2023-04-15T22:43:49;51.08;;;33.85;;
63534;SDS011;55128;50.230;18.944;2023-04-15T22:48:50;43.65;;;30.15;;
63534;SDS011;55128;50.230;18.944;2023-04-15T22:53:50;41.28;;;28.30;;
63534;SDS011;55128;50.230;18.944;2023-04-15T22:58:51;45.90;;;30.55;;
63534;SDS011;55128;50.230;18.944;2023-04-15T23:03:52;52.05;;;38.55;;
63534;SDS011;55128;50.230;18.944;2023-04-15T23:08:52;43.42;;;30.42;;
63534;SDS011;55128;50.230;18.944;2023-04-15T23:13:53;45.23;;;29.77;;
63534;SDS011;55128;50.230;18.944;2023-04-15T23:18:53;46.03;;;28.30;;
63534;SDS011;55128;50.230;18.944;2023-04-15T23:23:53;43.10;;;27.92;;
63534;SDS011;55128;50.230;18.944;2023-04-15T23:28:54;44.28;;;27.38;;
63534;SDS011;55128;50.230;18.944;2023-04-15T23:33:54;48.88;;;30.40;;
63534;SDS011;55128;50.230;18.944;2023-04-15T23:38:55;45.10;;;28.27;;
63534;SDS011;55128;50.230;18.944;2023-04-15T23:43:55;38.58;;;25.52;;
63534;SDS011;55128;50.230;18.944;2023-04-15T23:48:55;36.77;;;26.73;;
63534;SDS011;55128;50.230;18.944;2023-04-15T23:53:56;42.53;;;28.33;;
63534;SDS011;55128;50.230;18.944;2023-04-15T23:58:56;42.83;;;27.23;;
